Terminal Aerodrome Forecast
Issued by NWS Sterling, VA

Home | Current Version | Previous Version | Text Only | Print | Product List | Glossary On
Versions: 1 2 3 4 5 6 7 8 9 10 11 12 13 14
000
FTUS41 KLWX 291500 AAA
TAFCHO
TAF AMD
KCHO 291507Z 2915/3012 03007KT P6SM OVC025
     FM291700 06004KT P6SM OVC040
     FM300400 04006KT P6SM SCT015 OVC030
     FM300800 02006KT 6SM -RASN SCT015 OVC035=

USA.gov is the U.S. government's official web portal to all federal, state and local government web resources and services.